Terminal Aerodrome Forecast
Issued by NWS Norman, OK

Home | Current Version | Previous Version | Text Only | Print | Product List | Glossary On
Versions: 1 2 3 4 5 6 7 8 9 10 11 12 13 14 15 16 17 18 19 20 21 22 23 24 25 26
000
FTUS44 KOUN 222338
TAFOKC
TAF
KOKC 222338Z 2300/2324 13007KT 2SM -DZ BR BKN004 OVC010
     FM230300 12011KT 4SM BR OVC004
      TEMPO 2308/2312 2SM -RA BR BKN004 OVC012
     FM231200 15014KT 3SM RA BR OVC004
      TEMPO 2318/2322 2SM -TSRA BKN004 OVC012CB=

USA.gov is the U.S. government's official web portal to all federal, state and local government web resources and services.